Flight Track Log - Related Links

Times and Time Zones

All times are in EDT time to prevent confusion due to time zone crossing. See the BJS542 flight status page for this flight to view local times or setup timezone preferences in your user account.

Time Position Orientation Groundspeed Altitude Reporting Facility
EDT Latitude Longitude Course Direction KTS MPH feet Rate Location/Type
Sat 06:22:48 PM 34.1833 -118.3500 338° Northwest 173 199 1,900  Level Southern California TRACON
Sat 06:24:26 PM 34.1325 -118.4156 227° Southwest 210 242 6,500 3,788 Climbing Los Angeles Center
Sat 06:25:28 PM 34.1622 -118.5167 290° West 283 326 12,000 4,258 Climbing Los Angeles Center
Sat 06:26:30 PM 34.2408 -118.5597 336° Northwest 308 354 15,300 3,339 Climbing Los Angeles Center
Sat 06:27:32 PM 34.3289 -118.6072 336° Northwest 341 392 18,900 3,048 Climbing Los Angeles Center
Sat 06:28:00 PM 34.5020 -118.7093 338° Northwest  Level FlightAware Approximate
Sat 06:28:34 PM 34.4250 -118.6553 338° Northwest 372 428 21,600  Level Los Angeles Center
Sat 06:29:35 PM 34.5256 -118.7114 335° Northwest 401 461 24,100 2,488 Climbing Los Angeles Center
Sat 06:30:37 PM 34.6297 -118.7683 336° Northwest 409 471 26,700 2,565 Climbing Los Angeles Center
Sat 06:31:39 PM 34.7389 -118.8278 336° Northwest 428 493 29,400 2,585 Climbing Los Angeles Center
Sat 06:32:40 PM 34.8606 -118.9200 328° Northwest 436 502 32,000 1,268 Climbing Los Angeles Center
Sat 06:33:42 PM 34.9536 -119.0097 322° Northwest 442 509 32,000  Level Los Angeles Center
Sat 06:34:44 PM 35.0606 -119.1089 323° Northwest 474 545 32,000  Level Los Angeles Center
Sat 06:35:45 PM 35.1636 -119.2106 321° Northwest 477 549 32,000  Level Los Angeles Center
Sat 06:36:47 PM 35.2650 -119.3108 321° Northwest 474 545 32,000  Level Los Angeles Center
Sat 06:37:49 PM 35.3883 -119.4325 321° Northwest 477 549 32,000  Level Los Angeles Center
Sat 06:38:51 PM 35.4917 -119.5342 321° Northwest 477 549 32,000  Level Los Angeles Center
Sat 06:39:52 PM 35.5933 -119.6367 321° Northwest 477 549 32,000  Level Los Angeles Center
Sat 06:40:54 PM 35.6958 -119.7386 321° Northwest 476 548 32,000  Level Los Angeles Center
Sat 06:41:56 PM 35.7978 -119.8406 321° Northwest 476 548 32,000  Level Los Angeles Center
Sat 06:42:58 PM 35.9194 -119.9644 321° Northwest 476 548 32,000  Level Los Angeles Center
Sat 06:43:59 PM 36.0208 -120.0667 321° Northwest 474 545 32,000 -711 Level Los Angeles Center
Sat 06:45:13 PM 36.1211 -120.1697 320° Northwest 472 543 30,400 -971 Descending Los Angeles Center
Sat 06:46:15 PM 36.2353 -120.2861 321° Northwest 448 516 29,800 -832 Descending Los Angeles Center
Sat 06:47:30 PM 36.3528 -120.4022 321° Northwest 456 525 28,500 -1,015 Descending Oakland Center
Sat 06:48:31 PM 36.4528 -120.5067 320° Northwest 469 540 27,500 -1,073 Descending Oakland Center
Sat 06:49:33 PM 36.5711 -120.6297 320° Northwest 465 535 26,300 -1,268 Descending Oakland Center
Sat 06:50:34 PM 36.6706 -120.7300 321° Northwest 462 532 24,900 -1,672 Descending Oakland Center
Sat 06:51:35 PM 36.7667 -120.8333 319° Northwest 458 527 22,900 -1,918 Descending Oakland Center
Sat 06:52:36 PM 36.8533 -120.9372 316° Northwest 452 520 21,000 -2,016 Descending Oakland Center
Sat 06:53:37 PM 36.9381 -121.0339 318° Northwest 421 484 18,800 -2,000 Descending Oakland Center
Sat 06:54:39 PM 37.0194 -121.1275 317° Northwest 400 460 16,900 -1,805 Descending Oakland Center
Sat 06:55:40 PM 37.0969 -121.2161 318° Northwest 382 440 15,100 -1,820 Descending Oakland Center
Sat 06:56:41 PM 37.1758 -121.3058 318° Northwest 382 440 13,200 -2,016 Descending Oakland Center
Sat 06:57:42 PM 37.2683 -121.4158 317° Northwest 382 440 11,000 -1,623 Descending Oakland Center
Sat 06:58:43 PM 37.3392 -121.4978 317° Northwest 348 400 9,900 -1,328 Descending Oakland Center
Sat 06:59:44 PM 37.3994 -121.5681 317° Northwest 292 336 8,300 -1,512 Descending Oakland Center
Sat 07:00:46 PM 37.4544 -121.6425 313° West 290 334 6,800 -1,122 Descending Oakland Center
Sat 07:01:47 PM 37.5011 -121.7247 306° West 290 334 6,000 -393 Descending Oakland Center
Sat 07:02:48 PM 37.5456 -121.8025 306° West 280 322 6,000 -344 Level Oakland Center
Sat 07:03:49 PM 37.5911 -121.8819 306° West 280 322 5,300 -934 Descending Oakland Center
Sat 07:04:50 PM 37.6367 -121.9611 306° West 280 322 4,100 -1,220 Descending Oakland Center
Sat 07:05:52 PM 37.6683 -122.0347 299° West 252 290 2,800 -976 Descending Oakland Center
Sat 07:06:53 PM 37.6886 -122.0936 294° West 210 242 2,100 -689 Descending Oakland Center
Sat 07:07:54 PM 37.7014 -122.1358 291° West 158 182 1,400 -689 Descending Oakland Center
Sat 07:08:55 PM 37.7131 -122.1725 292° West 131 151 700 9,148 Descending Oakland Center
Sat 07:09:56 PM 37.7256 -122.2122 292° West 124 143 20,000 18,984 Climbing Oakland Center
Sat 07:11:00 PM 37.7167 -122.2167 270° West  Level FlightAware Approximate
Sat 07:18:00 PM 37.7213 -122.2207 270° West  Level Estimated

Login

Don't have an account? Register now (free) for customized features, flight alerts, and more!